createdAt,value
2023-01-27T00:00:28.331Z,8.09
2023-01-27T00:02:55.081Z,7.98
2023-01-27T00:05:22.192Z,7.38
2023-01-27T00:07:49.773Z,7.77
2023-01-27T00:10:17.758Z,7.48
2023-01-27T00:13:03.527Z,7.59
2023-01-27T00:15:30.706Z,7.55
2023-01-27T00:17:57.080Z,7.29
2023-01-27T00:20:42.525Z,7.70
2023-01-27T00:23:34.576Z,8.00
2023-01-27T00:26:06.309Z,7.74
2023-01-27T00:28:33.521Z,8.13
2023-01-27T00:31:00.694Z,7.89
2023-01-27T00:33:27.841Z,7.54
2023-01-27T00:36:01.586Z,7.29
2023-01-27T00:38:29.046Z,7.79
2023-01-27T00:41:14.111Z,8.04
2023-01-27T00:43:40.518Z,7.76
2023-01-27T00:46:07.188Z,7.48
2023-01-27T00:48:33.866Z,7.29
2023-01-27T00:51:00.728Z,7.53
2023-01-27T00:53:27.669Z,8.16
2023-01-27T00:55:54.192Z,8.21
2023-01-27T00:58:22.401Z,8.14
2023-01-27T01:00:49.206Z,8.13
2023-01-27T01:03:15.884Z,8.19
2023-01-27T01:05:42.349Z,7.67
2023-01-27T01:08:10.470Z,8.16
2023-01-27T01:10:40.620Z,8.00
2023-01-27T01:13:12.029Z,7.77
2023-01-27T01:15:40.948Z,7.84
2023-01-27T01:18:08.283Z,7.56
2023-01-27T01:20:39.554Z,8.32
2023-01-27T01:23:07.007Z,8.32
2023-01-27T01:25:34.151Z,7.81
2023-01-27T01:28:02.431Z,7.71
2023-01-27T01:30:29.730Z,7.70
2023-01-27T01:32:56.930Z,7.91
2023-01-27T01:35:25.251Z,7.88
2023-01-27T01:37:52.809Z,7.63
2023-01-27T01:40:20.105Z,8.18
2023-01-27T01:42:58.266Z,7.90
2023-01-27T01:45:34.029Z,7.81
2023-01-27T01:48:07.251Z,7.83
2023-01-27T01:50:34.043Z,7.56
2023-01-27T01:53:01.930Z,7.38
2023-01-27T01:55:30.700Z,7.39
2023-01-27T01:57:58.145Z,7.89
2023-01-27T02:00:24.913Z,8.22
2023-01-27T02:02:55.092Z,7.55
2023-01-27T02:05:27.622Z,8.09
2023-01-27T02:08:12.789Z,7.76
2023-01-27T02:10:40.121Z,8.12
2023-01-27T02:13:06.546Z,7.66
2023-01-27T02:15:33.280Z,7.86
2023-01-27T02:18:01.240Z,7.69
2023-01-27T02:20:31.360Z,8.01
2023-01-27T02:23:16.664Z,7.69
2023-01-27T02:25:57.097Z,7.43
2023-01-27T02:28:26.359Z,7.41
2023-01-27T02:30:53.174Z,7.20
2023-01-27T02:33:20.265Z,7.74
2023-01-27T02:35:55.959Z,7.42
2023-01-27T02:38:24.232Z,7.66
2023-01-27T02:40:54.466Z,7.89
2023-01-27T02:43:22.050Z,7.89
2023-01-27T02:45:49.258Z,7.61
2023-01-27T02:48:15.877Z,7.38
2023-01-27T02:50:42.650Z,7.41
2023-01-27T02:53:09.962Z,7.80
2023-01-27T02:55:37.106Z,6.96
2023-01-27T02:58:04.616Z,7.32
2023-01-27T03:00:31.099Z,7.49
2023-01-27T03:02:59.328Z,7.15
2023-01-27T03:05:25.811Z,7.33
2023-01-27T03:07:52.296Z,7.83
2023-01-27T03:10:19.204Z,7.53
2023-01-27T03:12:46.142Z,7.19
2023-01-27T03:15:31.367Z,7.03
2023-01-27T03:18:17.105Z,7.19
2023-01-27T03:20:47.445Z,7.34
2023-01-27T03:23:14.838Z,7.38
2023-01-27T03:25:42.553Z,7.39
2023-01-27T03:28:09.975Z,7.46
2023-01-27T03:30:36.801Z,7.12
2023-01-27T03:33:05.785Z,7.02
2023-01-27T03:35:39.206Z,7.53
2023-01-27T03:38:26.106Z,7.31
2023-01-27T03:41:11.111Z,7.16
2023-01-27T03:43:55.790Z,6.84
2023-01-27T03:46:24.326Z,7.32
2023-01-27T03:48:52.015Z,7.70
2023-01-27T03:51:19.560Z,6.99
2023-01-27T03:53:46.159Z,7.00
2023-01-27T03:56:13.947Z,7.47
2023-01-27T03:58:40.846Z,7.46
2023-01-27T04:01:13.041Z,7.12
2023-01-27T04:03:58.358Z,7.25
2023-01-27T04:06:44.862Z,7.13
2023-01-27T04:09:12.754Z,7.19
2023-01-27T04:11:58.263Z,7.06
2023-01-27T04:14:26.204Z,6.96
2023-01-27T04:16:53.477Z,7.27
2023-01-27T04:19:20.365Z,8.78
2023-01-27T04:21:46.997Z,7.93
2023-01-27T04:24:17.642Z,8.05
2023-01-27T04:26:44.833Z,9.11
2023-01-27T04:29:12.912Z,8.25
2023-01-27T04:31:39.922Z,8.41
2023-01-27T04:34:07.088Z,8.13
2023-01-27T04:36:33.933Z,7.03
2023-01-27T04:39:00.719Z,8.14
2023-01-27T04:41:28.279Z,7.48
2023-01-27T04:43:54.940Z,8.15
2023-01-27T04:46:22.112Z,7.74
2023-01-27T04:48:49.142Z,7.63
2023-01-27T04:51:15.862Z,7.84
2023-01-27T04:53:43.729Z,8.09
2023-01-27T04:56:25.765Z,8.36
2023-01-27T04:58:53.135Z,8.21
2023-01-27T05:01:22.116Z,8.28
2023-01-27T05:03:48.642Z,8.24
2023-01-27T05:06:15.242Z,8.27
2023-01-27T05:08:43.384Z,8.57
2023-01-27T05:11:11.195Z,8.52
2023-01-27T05:13:37.690Z,8.48
2023-01-27T05:16:05.331Z,7.80
2023-01-27T05:18:42.168Z,7.24
2023-01-27T05:21:13.466Z,7.66
2023-01-27T05:23:39.975Z,7.37
2023-01-27T05:26:08.631Z,7.92
2023-01-27T05:28:36.366Z,7.99
2023-01-27T05:31:08.375Z,7.86
2023-01-27T05:33:34.966Z,7.62
2023-01-27T05:36:03.503Z,7.85
2023-01-27T05:38:30.196Z,8.00
2023-01-27T05:40:57.759Z,8.61
2023-01-27T05:43:25.285Z,8.90
2023-01-27T05:45:51.864Z,8.44
2023-01-27T05:48:18.928Z,8.73
2023-01-27T05:50:54.976Z,8.37
2023-01-27T05:53:22.003Z,8.52
2023-01-27T05:55:48.771Z,8.54
2023-01-27T05:58:15.208Z,7.97
2023-01-27T06:00:41.585Z,9.07
2023-01-27T06:03:08.045Z,8.89
2023-01-27T06:05:34.768Z,8.84
2023-01-27T06:08:01.107Z,8.19
2023-01-27T06:10:27.554Z,8.23
2023-01-27T06:12:54.031Z,7.92
2023-01-27T06:15:20.672Z,7.95
2023-01-27T06:17:47.617Z,7.71
2023-01-27T06:20:14.164Z,6.71
2023-01-27T06:22:42.448Z,7.16
2023-01-27T06:25:09.371Z,6.24
2023-01-27T06:27:35.851Z,6.57
2023-01-27T06:30:02.240Z,6.88
2023-01-27T06:32:29.749Z,6.68
2023-01-27T06:34:56.127Z,6.84
2023-01-27T06:37:22.611Z,7.66
2023-01-27T06:39:50.307Z,6.28
2023-01-27T06:42:16.829Z,6.91
2023-01-27T06:44:43.164Z,7.02
2023-01-27T06:47:09.719Z,6.86
2023-01-27T06:49:36.449Z,7.48
2023-01-27T06:52:02.935Z,7.39
2023-01-27T06:54:29.283Z,7.69
2023-01-27T06:56:55.693Z,7.56
2023-01-27T06:59:22.360Z,7.47
2023-01-27T07:01:49.078Z,6.70
2023-01-27T07:04:15.451Z,7.04
2023-01-27T07:06:41.933Z,6.91
2023-01-27T07:09:08.302Z,7.78
2023-01-27T07:11:34.696Z,7.03
2023-01-27T07:14:01.239Z,7.09
2023-01-27T07:16:27.677Z,7.29
2023-01-27T07:18:54.050Z,8.03
2023-01-27T07:21:20.516Z,7.45
2023-01-27T07:23:46.941Z,7.11
2023-01-27T07:26:24.653Z,7.51
2023-01-27T07:28:51.547Z,6.62
2023-01-27T07:31:18.070Z,6.64
2023-01-27T07:33:45.006Z,6.88
2023-01-27T07:36:11.375Z,6.65
2023-01-27T07:38:39.059Z,6.80
2023-01-27T07:41:06.126Z,7.17
2023-01-27T07:43:32.876Z,7.37
2023-01-27T07:45:59.544Z,7.35
2023-01-27T07:48:26.049Z,7.26
2023-01-27T07:50:52.461Z,8.27
2023-01-27T07:53:18.902Z,7.42
2023-01-27T07:55:45.413Z,7.72
2023-01-27T07:58:11.847Z,6.89
2023-01-27T08:00:38.527Z,6.93
2023-01-27T08:03:06.187Z,6.65
2023-01-27T08:05:33.897Z,7.25
2023-01-27T08:08:04.055Z,6.90
2023-01-27T08:10:30.649Z,7.55
2023-01-27T08:12:57.275Z,7.12
2023-01-27T08:15:24.036Z,7.43
2023-01-27T08:17:57.600Z,7.61
2023-01-27T08:20:24.893Z,7.83
2023-01-27T08:22:51.497Z,7.81
2023-01-27T08:25:18.280Z,7.03
2023-01-27T08:27:44.823Z,7.63
2023-01-27T08:30:11.772Z,7.00
2023-01-27T08:32:38.278Z,6.97
2023-01-27T08:35:04.816Z,6.91
2023-01-27T08:37:31.332Z,7.55
2023-01-27T08:39:57.774Z,7.51
2023-01-27T08:42:24.329Z,7.06
2023-01-27T08:44:50.704Z,6.96
2023-01-27T08:47:17.105Z,7.01
2023-01-27T08:49:43.594Z,6.92
2023-01-27T08:52:10.083Z,6.64
2023-01-27T08:54:36.489Z,7.06
2023-01-27T08:57:03.619Z,7.62
2023-01-27T08:59:30.059Z,8.24
2023-01-27T09:01:56.452Z,7.33
2023-01-27T09:04:23.686Z,6.53
2023-01-27T09:06:50.455Z,6.81
2023-01-27T09:09:16.865Z,7.02
2023-01-27T09:11:44.658Z,6.81
2023-01-27T09:14:11.186Z,7.29
2023-01-27T09:16:37.618Z,7.53
2023-01-27T09:19:04.820Z,8.20
2023-01-27T09:21:31.476Z,7.67
2023-01-27T09:23:57.960Z,7.36
2023-01-27T09:26:24.415Z,7.84
2023-01-27T09:28:50.821Z,8.13
2023-01-27T09:31:17.343Z,7.97
2023-01-27T09:33:44.056Z,8.40
2023-01-27T09:36:11.940Z,8.35
2023-01-27T09:38:41.573Z,7.95
2023-01-27T09:41:27.385Z,8.15
2023-01-27T09:44:12.687Z,8.10
2023-01-27T09:46:50.652Z,8.53
2023-01-27T09:49:23.989Z,8.36
2023-01-27T09:51:50.460Z,8.69
2023-01-27T09:54:16.781Z,9.45
2023-01-27T09:56:46.860Z,8.81
2023-01-27T09:59:19.355Z,8.75
2023-01-27T10:01:53.125Z,8.96
2023-01-27T10:04:19.533Z,9.17
2023-01-27T10:06:52.939Z,9.48
2023-01-27T10:09:39.346Z,8.89
2023-01-27T10:12:08.773Z,8.98
2023-01-27T10:14:35.140Z,8.65
2023-01-27T10:17:10.025Z,7.87
2023-01-27T10:19:51.477Z,8.37
2023-01-27T10:22:30.284Z,7.55
2023-01-27T10:24:59.618Z,7.13
2023-01-27T10:27:27.340Z,7.06
2023-01-27T10:29:58.593Z,6.79
2023-01-27T10:32:33.636Z,6.47
2023-01-27T10:35:18.223Z,6.63
2023-01-27T10:37:56.762Z,6.96
2023-01-27T10:40:55.655Z,6.73
2023-01-27T10:43:30.231Z,7.47
2023-01-27T10:46:14.943Z,7.54
2023-01-27T10:48:47.597Z,6.85
2023-01-27T10:51:17.478Z,6.96
2023-01-27T10:53:58.588Z,6.60
2023-01-27T10:56:27.752Z,6.04
2023-01-27T10:59:16.768Z,6.21
2023-01-27T11:01:46.582Z,6.89
2023-01-27T11:04:21.508Z,6.25
2023-01-27T11:06:49.176Z,6.95
2023-01-27T11:09:22.390Z,6.29
2023-01-27T11:11:51.068Z,6.83
2023-01-27T11:14:22.622Z,6.22
2023-01-27T11:16:51.622Z,6.95
2023-01-27T11:19:36.891Z,7.31
2023-01-27T11:22:08.262Z,7.24
2023-01-27T11:24:59.888Z,7.42
2023-01-27T11:27:37.896Z,7.36
2023-01-27T11:30:19.583Z,7.36
2023-01-27T11:33:04.933Z,7.56
2023-01-27T11:35:31.471Z,7.44
2023-01-27T11:38:09.914Z,7.51
2023-01-27T11:40:41.606Z,6.47
2023-01-27T11:43:11.845Z,6.63
2023-01-27T11:45:38.937Z,7.33
2023-01-27T11:48:07.794Z,7.34
2023-01-27T11:50:36.001Z,7.43
2023-01-27T11:53:15.186Z,7.27
2023-01-27T11:55:43.469Z,6.73
2023-01-27T11:58:20.780Z,6.39
2023-01-27T12:00:49.467Z,6.76
2023-01-27T12:03:22.565Z,6.81
2023-01-27T12:05:54.508Z,7.02
2023-01-27T12:08:38.117Z,6.70
2023-01-27T12:11:17.893Z,6.79
2023-01-27T12:13:48.803Z,6.84
2023-01-27T12:16:15.741Z,6.63
2023-01-27T12:18:56.418Z,7.00
2023-01-27T12:21:34.677Z,7.19
2023-01-27T12:24:01.499Z,7.06
2023-01-27T12:26:30.845Z,7.06
2023-01-27T12:29:05.228Z,7.31
2023-01-27T12:31:33.073Z,6.89
2023-01-27T12:34:08.272Z,7.13
2023-01-27T12:36:40.574Z,6.76
2023-01-27T12:39:23.937Z,6.60
2023-01-27T12:41:51.467Z,7.33
2023-01-27T12:44:19.500Z,7.16
2023-01-27T12:47:00.629Z,6.91
2023-01-27T12:49:35.647Z,6.92
2023-01-27T12:52:04.005Z,6.25
2023-01-27T12:54:36.085Z,6.77
2023-01-27T12:57:04.795Z,7.09
2023-01-27T12:59:32.362Z,6.59
2023-01-27T13:02:00.589Z,7.63
2023-01-27T13:04:27.469Z,7.52
2023-01-27T13:07:03.747Z,7.56
2023-01-27T13:09:34.724Z,6.78
2023-01-27T13:12:02.650Z,5.83
2023-01-27T13:14:33.735Z,5.93
2023-01-27T13:17:00.315Z,6.23
2023-01-27T13:19:38.122Z,6.67
2023-01-27T13:22:04.943Z,6.27
2023-01-27T13:24:37.183Z,6.84
2023-01-27T13:27:05.783Z,5.82
2023-01-27T13:29:35.067Z,6.63
2023-01-27T13:32:01.958Z,6.38
2023-01-27T13:34:46.922Z,7.41
2023-01-27T13:37:18.225Z,8.20
2023-01-27T13:39:56.767Z,7.27
2023-01-27T13:42:29.921Z,7.62
2023-01-27T13:45:02.465Z,7.59
2023-01-27T13:47:47.979Z,6.69
2023-01-27T13:50:20.609Z,6.12
2023-01-27T13:52:50.059Z,6.10
2023-01-27T13:55:18.585Z,6.59
2023-01-27T13:57:48.107Z,6.87
2023-01-27T14:00:24.144Z,6.99
2023-01-27T14:02:56.609Z,6.69
2023-01-27T14:05:41.970Z,6.87
2023-01-27T14:08:26.961Z,6.91
2023-01-27T14:11:07.078Z,6.81
2023-01-27T14:13:46.791Z,7.29
2023-01-27T14:16:16.461Z,7.49
2023-01-27T14:18:46.215Z,7.52
2023-01-27T14:21:39.355Z,7.95
2023-01-27T14:24:21.099Z,8.76
2023-01-27T14:26:56.759Z,9.11
2023-01-27T14:29:39.332Z,8.08
2023-01-27T14:32:06.035Z,6.56
2023-01-27T14:34:48.464Z,7.74
2023-01-27T14:37:22.206Z,7.65
2023-01-27T14:40:00.677Z,8.40
2023-01-27T14:42:36.167Z,7.30
2023-01-27T14:45:08.619Z,7.82
2023-01-27T14:47:38.071Z,7.82
2023-01-27T14:50:19.441Z,7.08
2023-01-27T14:52:53.599Z,8.36
2023-01-27T14:55:26.127Z,8.30
2023-01-27T14:57:53.101Z,8.18
2023-01-27T15:00:19.650Z,7.45
2023-01-27T15:02:48.591Z,7.02
2023-01-27T15:05:18.006Z,6.58
2023-01-27T15:07:44.361Z,7.26
2023-01-27T15:10:11.032Z,7.28
2023-01-27T15:12:55.701Z,7.28
2023-01-27T15:15:31.305Z,6.86
2023-01-27T15:18:14.915Z,6.60
2023-01-27T15:20:52.977Z,7.12
2023-01-27T15:23:25.325Z,7.57
2023-01-27T15:25:54.492Z,6.94
2023-01-27T15:28:24.426Z,6.52
2023-01-27T15:31:09.976Z,6.41
2023-01-27T15:33:45.731Z,6.68
2023-01-27T15:36:27.860Z,6.02
2023-01-27T15:39:09.736Z,6.29
2023-01-27T15:41:37.804Z,6.17
2023-01-27T15:44:12.501Z,7.11
2023-01-27T15:46:42.701Z,6.99
2023-01-27T15:49:15.616Z,6.85
2023-01-27T15:51:42.492Z,7.10
2023-01-27T15:54:16.941Z,7.40
2023-01-27T15:56:52.737Z,7.02
2023-01-27T15:59:24.629Z,7.63
2023-01-27T16:02:00.868Z,8.26
2023-01-27T16:04:30.081Z,8.22
2023-01-27T16:07:02.971Z,7.73
2023-01-27T16:09:29.852Z,7.51
2023-01-27T16:12:19.091Z,6.61
2023-01-27T16:18:25.495Z,6.32
2023-01-27T16:20:56.381Z,6.00
2023-01-27T16:23:39.806Z,6.40
2023-01-27T16:26:18.642Z,6.40
2023-01-27T16:28:47.202Z,6.20
2023-01-27T16:31:19.345Z,6.36
2023-01-27T16:33:47.447Z,5.60
2023-01-27T16:36:33.021Z,6.34
2023-01-27T16:39:23.698Z,6.22
2023-01-27T16:41:56.161Z,6.38
2023-01-27T16:44:28.287Z,6.66
2023-01-27T16:47:02.463Z,6.35
2023-01-27T16:49:37.287Z,7.03
2023-01-27T16:52:08.333Z,7.42
2023-01-27T16:54:40.275Z,7.02
2023-01-27T16:57:08.246Z,7.88
2023-01-27T16:59:36.353Z,7.67
2023-01-27T17:02:05.055Z,7.66
2023-01-27T17:04:33.279Z,7.45
2023-01-27T17:07:11.746Z,7.18
2023-01-27T17:09:43.339Z,7.32
2023-01-27T17:12:27.021Z,6.38
2023-01-27T17:14:54.443Z,6.73
2023-01-27T17:17:24.689Z,7.40
2023-01-27T17:19:53.088Z,6.90
2023-01-27T17:22:32.872Z,7.16
2023-01-27T17:25:06.698Z,6.59
2023-01-27T17:27:35.420Z,6.24
2023-01-27T17:30:05.110Z,6.65
2023-01-27T17:32:34.257Z,6.67
2023-01-27T17:35:03.532Z,7.39
2023-01-27T17:37:31.310Z,6.53
2023-01-27T17:39:58.971Z,6.78
2023-01-27T17:42:28.790Z,7.67
2023-01-27T17:44:55.680Z,7.49
2023-01-27T17:47:22.884Z,6.72
2023-01-27T17:49:50.327Z,6.94
2023-01-27T17:52:20.398Z,6.84
2023-01-27T17:54:47.640Z,7.16
2023-01-27T17:57:20.906Z,7.27
2023-01-27T17:59:59.877Z,6.30
2023-01-27T18:02:30.172Z,6.88
2023-01-27T18:04:59.198Z,7.57
2023-01-27T18:07:25.956Z,7.68
2023-01-27T18:09:53.857Z,7.50
2023-01-27T18:12:30.422Z,7.41
2023-01-27T18:14:56.934Z,7.83
2023-01-27T18:17:24.967Z,8.57
2023-01-27T18:19:56.299Z,7.20
2023-01-27T18:22:26.221Z,6.58
2023-01-27T18:24:58.195Z,6.31
2023-01-27T18:27:46.696Z,6.80
2023-01-27T18:30:20.797Z,6.47
2023-01-27T18:32:50.857Z,7.14
2023-01-27T18:35:24.342Z,7.50
2023-01-27T18:38:00.020Z,7.92
2023-01-27T18:40:34.364Z,7.34
2023-01-27T18:43:03.092Z,7.44
2023-01-27T18:45:29.982Z,6.57
2023-01-27T18:48:00.520Z,6.48
2023-01-27T18:50:28.512Z,7.31
2023-01-27T18:52:55.778Z,7.43
2023-01-27T18:55:24.056Z,7.83
2023-01-27T18:57:52.863Z,7.47
2023-01-27T19:00:21.680Z,8.03
2023-01-27T19:02:53.197Z,8.53
2023-01-27T19:05:21.912Z,8.21
2023-01-27T19:07:48.930Z,7.48
2023-01-27T19:10:17.424Z,6.94
2023-01-27T19:12:46.086Z,7.57
2023-01-27T19:15:14.470Z,7.47
2023-01-27T19:17:42.727Z,7.50
2023-01-27T19:20:19.796Z,7.17
2023-01-27T19:22:46.844Z,6.74
2023-01-27T19:25:32.896Z,7.28
2023-01-27T19:28:04.937Z,7.71
2023-01-27T19:30:36.252Z,7.68
2023-01-27T19:33:04.532Z,7.43
2023-01-27T19:35:40.795Z,7.59
2023-01-27T19:38:10.653Z,7.93
2023-01-27T19:40:44.430Z,8.62
2023-01-27T19:43:15.036Z,8.70
2023-01-27T19:45:43.278Z,8.33
2023-01-27T19:48:14.564Z,8.35
2023-01-27T19:50:41.403Z,8.13
2023-01-27T19:53:08.054Z,8.23
2023-01-27T19:55:35.537Z,8.57
2023-01-27T19:58:02.583Z,7.35
2023-01-27T20:00:34.167Z,7.56
2023-01-27T20:03:14.359Z,8.54
2023-01-27T20:05:40.945Z,9.08
2023-01-27T20:08:13.177Z,8.99
2023-01-27T20:10:40.086Z,8.37
2023-01-27T20:13:07.591Z,8.81
2023-01-27T20:15:37.167Z,9.28
2023-01-27T20:18:04.416Z,9.37
2023-01-27T20:20:31.704Z,9.11
2023-01-27T20:23:16.558Z,9.21
2023-01-27T20:25:43.878Z,8.51
2023-01-27T20:28:12.870Z,8.28
2023-01-27T20:30:39.702Z,8.66
2023-01-27T20:33:06.852Z,8.76
2023-01-27T20:35:38.786Z,8.60
2023-01-27T20:38:05.606Z,8.91
2023-01-27T20:40:34.347Z,8.82
2023-01-27T20:43:02.352Z,8.85
2023-01-27T20:45:28.918Z,8.92
2023-01-27T20:48:06.088Z,8.48
2023-01-27T20:50:33.133Z,8.01
2023-01-27T20:53:00.849Z,8.43
2023-01-27T20:55:30.373Z,8.51
2023-01-27T20:57:58.146Z,8.01
2023-01-27T21:00:32.391Z,8.66
2023-01-27T21:02:59.078Z,8.73
2023-01-27T21:05:57.907Z,8.86
2023-01-27T21:08:24.551Z,8.82
2023-01-27T21:10:51.260Z,8.69
2023-01-27T21:13:18.031Z,9.03
2023-01-27T21:15:48.385Z,8.87
2023-01-27T21:18:15.092Z,8.77
2023-01-27T21:20:46.508Z,8.93
2023-01-27T21:23:12.836Z,9.18
2023-01-27T21:25:39.372Z,9.18
2023-01-27T21:28:05.986Z,8.97
2023-01-27T21:30:32.481Z,9.09
2023-01-27T21:32:58.886Z,8.82
2023-01-27T21:35:25.654Z,8.34
2023-01-27T21:37:58.586Z,8.53
2023-01-27T21:40:31.077Z,8.83
2023-01-27T21:43:21.590Z,9.02
2023-01-27T21:46:00.071Z,9.02
2023-01-27T21:48:32.323Z,9.32
2023-01-27T21:51:01.289Z,8.58
2023-01-27T21:53:31.602Z,9.02
2023-01-27T21:56:07.474Z,8.68
2023-01-27T21:58:34.019Z,8.87
2023-01-27T22:01:12.179Z,8.94
2023-01-27T22:03:38.773Z,8.92
2023-01-27T22:06:09.913Z,9.10
2023-01-27T22:08:37.463Z,9.07
2023-01-27T22:11:12.888Z,8.82
2023-01-27T22:13:39.713Z,8.77
2023-01-27T22:16:11.657Z,8.66
2023-01-27T22:18:38.165Z,8.75
2023-01-27T22:21:10.607Z,8.96
2023-01-27T22:23:40.371Z,8.82
2023-01-27T22:26:10.377Z,8.65
2023-01-27T22:28:37.187Z,7.47
2023-01-27T22:31:06.274Z,8.49
2023-01-27T22:33:32.803Z,8.29
2023-01-27T22:36:03.369Z,6.89
2023-01-27T22:38:39.745Z,8.05
2023-01-27T22:41:09.703Z,8.64
2023-01-27T22:43:36.265Z,8.77
2023-01-27T22:46:06.201Z,9.11
2023-01-27T22:48:36.613Z,8.91
2023-01-27T22:51:11.996Z,8.02
2023-01-27T22:53:38.603Z,7.92
2023-01-27T22:56:08.198Z,8.68
2023-01-27T22:58:43.530Z,9.05
2023-01-27T23:01:10.204Z,7.17
2023-01-27T23:03:38.840Z,7.19
2023-01-27T23:06:08.082Z,7.86
2023-01-27T23:08:37.833Z,8.49
2023-01-27T23:11:05.197Z,9.00
2023-01-27T23:13:35.943Z,8.84
2023-01-27T23:16:02.742Z,9.05
2023-01-27T23:18:34.885Z,8.48
2023-01-27T23:21:10.697Z,7.63
2023-01-27T23:23:37.532Z,8.35
2023-01-27T23:26:11.001Z,7.96
2023-01-27T23:28:39.357Z,8.19
2023-01-27T23:31:13.399Z,8.48
2023-01-27T23:33:44.419Z,8.76
2023-01-27T23:36:14.506Z,8.07
2023-01-27T23:38:44.034Z,8.64
2023-01-27T23:41:23.006Z,8.81
2023-01-27T23:43:57.465Z,9.06
2023-01-27T23:46:30.463Z,8.93
2023-01-27T23:48:59.933Z,8.76
2023-01-27T23:51:32.355Z,8.99
2023-01-27T23:54:03.133Z,9.03
2023-01-27T23:56:38.982Z,9.27
2023-01-27T23:59:11.262Z,8.83
